Terminal Aerodrome Forecast
Issued by NWS Upton, NY

Home | Current Version | Previous Version | Text Only | Print | Product List | Glossary On
Versions: 1 2 3 4 5 6 7 8 9 10 11 12 13 14 15 16 17 18 19 20 21 22 23 24 25 26 27 28 29 30 31 32 33 34 35 36
914
FTUS41 KOKX 180830 AAA
TAFISP
TAF AMD
KISP 180830Z 1809/1906 15005KT P6SM BKN008 OVC030
     FM181100 17008KT 3SM -SHRA BR VCTS OVC030CB
     FM181300 18010KT 3SM -SHRA BR VCTS OVC015CB
      TEMPO 1813/1816 1SM +SHRA BR OVC009
     FM181700 18013G21KT P6SM SCT020 BKN035
     FM182300 19013G21KT 6SM -SHRA VCTS OVC030CB PROB30 1823/1824
      4SM TSRA OVC015CB
     FM190500 19010KT 4SM BR VCSH OVC030=

USA.gov is the U.S. government's official web portal to all federal, state and local government web resources and services.